テヘラン の空港の天気 - METARとTAF

メヘラーバード国際空港(テヘラン) ( OIII / THR ) - イラン テヘラン
飛行場実況気象(Metar)
観測時間02/18 02:00 IRST (02/17 22:30 UTC)
風向・風速西北西 5m/s
視程10km以上
天気現象
なし
気温3℃
湿度52%
気圧1013hPa
METAROIII 172230Z 29010KT CAVOK 03/M06 Q1013 A2991
過去の天気等 Google飛行場航空写真 Wunderground天気予報

過去48時間のMETAR

飛行場予報(TAF)
発表時間: 2/17 21:20 IRST (2/17 17:50 UTC)
予報対象時間: 17日21時 IRST ~ 19日3時 IRST
風向・風速西北西 4m/s
視程8000m
少しの雲 雲底高度 1070m
17日21時 IRST ~ 18日3時 IRST に一時的に
風向・風速西南西 9m/s
18日12時 IRST ~ 18日17時 IRST に一時的に
風向・風速西南西 7m/s
TAF OIII 171750Z 1718/1824 30008KT 8000 FEW035
TEMPO 1718/1724 24018KT
TEMPO 1809/1814 24014KT